Terminal Aerodrome Forecast
Issued by NWS

Home | Current Version | Previous Version | Text Only | Print | Product List | Glossary On
Versions: 1 2 3 4 5 6 7 8 9 10 11 12 13 14 15 16 17 18 19
000
FTUS43 KJKL 041733
TAFSME
TAF
KSME 041733Z 0418/0518 VRB03KT P6SM SCT030 BKN040
     FM050500 VRB03KT 3SM BR OVC015
     FM050600 VRB03KT 2SM -SHRA BR OVC006
     FM051400 VRB03KT P6SM -SHRA OVC015=

USA.gov is the U.S. government's official web portal to all federal, state and local government web resources and services.